EDDFEDDG

Guest
Details From EDDF - Frankfurt Am Main
To EDDG - Muenster Osnabrueck
Flight Number -
Tags Generated
Created
Modified
Stats Distance 130 nm / 242 km
Max Altitude 0 ft / 0 m
Waypoints 2
Social Downloads 2
Likes 0
Share VATSIM

Download

Looking for another format? Having issues loading an existing format? Contact us
Advertisement - Login to hide

Notes

Generated

Route

EDDF EDDG

ID Type Via Altitude Latitude Longitude Leg Dist Tot Dist Heading (true) Name
O EDDF APT - 0 ft / 0 m 50.02754˚ 8.53417˚ - 0 nm - -
O EDDG APT - 0 ft / 0 m 52.13151˚ 7.67006˚ 130 nm 130 nm 346° / 345° -

Altitude Profile

Advertisement - Login to hide

EDDF

Details ICAO EDDF (FRA)
Name Frankfurt am Main
Region Germany - Civil
Timezone Europe/Berlin (UTC+2.0)
Stats Elevation 355 ft / 108 m (AMSL)
Location 50.032604° 8.540641°
Runways 4
Magnetic Variation 2.401° E

METAR

EDDF 271020Z 10005KT 050V150 CAVOK 29/15 Q1018 NOSIG

Decode

TAF

TAF EDDF 270500Z 2706/2812 06005KT CAVOK PROB30 TEMPO 2713/2720 19015G25KT 3000 TSRAGR BKN040CB

Decode

Departure Runways

ID Width Length Bearing (true) Bearing (mag) Surface Threshold Offset Overrun Length
07C 197 ft / 60 m 13,091 ft / 3,990 m 69.57° 67.17° Asphalt 0 ft / 0 m 230 ft / 70 m
07L 148 ft / 45 m 9,164 ft / 2,793 m 69.54° 67.14° Concrete 0 ft / 0 m 328 ft / 100 m
07R 148 ft / 45 m 13,094 ft / 3,991 m 69.57° 67.17° Asphalt 0 ft / 0 m 230 ft / 70 m
18 148 ft / 45 m 13,056 ft / 3,980 m 179.84° 177.44° Concrete 0 ft / 0 m 49 ft / 15 m
25C 197 ft / 60 m 13,091 ft / 3,990 m 249.61° 247.21° Asphalt 0 ft / 0 m 1,152 ft / 351 m
25L 148 ft / 45 m 13,094 ft / 3,991 m 249.61° 247.21° Asphalt 0 ft / 0 m 2,051 ft / 625 m
25R 148 ft / 45 m 9,164 ft / 2,793 m 249.57° 247.17° Concrete 0 ft / 0 m 328 ft / 100 m
36 148 ft / 45 m 13,056 ft / 3,980 m 359.84° 357.44° Concrete 0 ft / 0 m 190 ft / 58 m

EDDG

Details ICAO EDDG (FMO)
Name Muenster Osnabrueck
Region Germany - Civil
Timezone Europe/Berlin (UTC+2.0)
Stats Elevation 159 ft / 48 m (AMSL)
Location 52.134580° 7.684669°
Runways 1
Magnetic Variation 2.130° E

METAR

EDDG 271020Z 06005KT 360V160 CAVOK 26/14 Q1019 NOSIG

Decode

TAF

TAF EDDG 270500Z 2706/2806 07007KT CAVOK PROB40 TEMPO 2716/2721 4000 TSRAGR BKN040CB BECMG 2717/2720 VRB02KT

Decode

Destination Runways

ID Width Length Bearing (true) Bearing (mag) Surface Threshold Offset Overrun Length
07 148 ft / 45 m 7,303 ft / 2,226 m 70.93° 68.80° Asphalt 151 ft / 46 m 0 ft / 0 m
25 148 ft / 45 m 7,303 ft / 2,226 m 250.96° 248.83° Asphalt 292 ft / 89 m 0 ft / 0 m

Approach Navaids

Runway Type Ident Frequency Range Bearing (true) Bearing (mag) Slope Elevation
07 Localiser IMOE 111.90 MHz 18 nm / 33 km 70.93° 68.80° - 156 ft / 48 m (AMSL)
07 Glidescope IMOE 111.90 MHz 10 nm / 19 km 70.95° 68.82° 3.00° 156 ft / 48 m (AMSL)
25 Localiser IMOW 110.10 MHz 18 nm / 33 km 251.02° 248.89° - 159 ft / 48 m (AMSL)
25 Glidescope IMOW 110.10 MHz 10 nm / 19 km 250.95° 248.82° 3.00° 159 ft / 48 m (AMSL)

Popular Alternatives